createdAt,value
2022-10-21T00:01:59.363Z,101092.00
2022-10-21T00:04:22.886Z,101095.56
2022-10-21T00:06:46.951Z,101114.78
2022-10-21T00:09:10.566Z,101114.16
2022-10-21T00:11:35.551Z,101095.34
2022-10-21T00:13:59.110Z,101104.47
2022-10-21T00:16:22.678Z,101086.88
2022-10-21T00:18:48.055Z,101092.63
2022-10-21T00:21:14.561Z,101127.50
2022-10-21T00:23:38.300Z,101134.34
2022-10-21T00:26:02.841Z,101131.31
2022-10-21T00:28:28.906Z,101121.44
2022-10-21T00:30:52.703Z,101126.09
2022-10-21T00:33:16.470Z,101139.31
2022-10-21T00:35:40.120Z,101139.06
2022-10-21T00:38:03.703Z,101138.78
2022-10-21T00:40:27.264Z,101135.81
2022-10-21T00:42:50.818Z,101125.75
2022-10-21T00:45:23.361Z,101129.81
2022-10-21T00:47:51.468Z,101120.72
2022-10-21T00:50:29.298Z,101124.16
2022-10-21T00:52:53.955Z,101114.84
2022-10-21T00:55:17.738Z,101112.78
2022-10-21T00:57:41.685Z,101117.41
2022-10-21T01:00:08.438Z,101111.47
2022-10-21T01:02:33.543Z,101106.69
2022-10-21T01:05:01.233Z,101084.81
2022-10-21T01:07:25.192Z,101085.94
2022-10-21T01:09:48.751Z,101077.72
2022-10-21T01:12:27.009Z,101066.59
2022-10-21T01:14:57.700Z,101073.19
2022-10-21T01:17:52.322Z,101092.13
2022-10-21T01:20:59.894Z,101084.31
2022-10-21T01:24:07.653Z,101083.53
2022-10-21T01:27:07.375Z,101089.50
2022-10-21T01:30:14.431Z,101078.78
2022-10-21T01:33:16.768Z,101082.69
2022-10-21T01:35:49.280Z,101068.69
2022-10-21T01:38:24.014Z,101064.19
2022-10-21T01:40:57.235Z,101059.13
2022-10-21T01:43:30.081Z,101062.41
2022-10-21T01:45:57.983Z,101063.72
2022-10-21T01:48:29.070Z,101060.97
2022-10-21T01:50:56.899Z,101057.47
2022-10-21T01:53:23.223Z,101044.97
2022-10-21T01:55:49.561Z,101049.34
2022-10-21T01:58:21.723Z,101043.25
2022-10-21T02:00:46.492Z,101027.03
2022-10-21T02:03:18.595Z,101017.25
2022-10-21T02:05:44.122Z,101020.72
2022-10-21T02:08:08.069Z,101010.09
2022-10-21T02:10:36.994Z,101009.69
2022-10-21T02:13:04.027Z,101003.97
2022-10-21T02:15:29.160Z,100995.56
2022-10-21T02:17:59.927Z,100990.31
2022-10-21T02:20:28.742Z,100982.97
2022-10-21T02:22:54.355Z,100970.06
2022-10-21T02:25:22.055Z,100969.94
2022-10-21T02:27:46.972Z,100968.47
2022-10-21T02:30:11.832Z,100979.97
2022-10-21T02:32:40.240Z,100988.63
2022-10-21T02:35:18.611Z,100999.34
2022-10-21T02:37:52.495Z,100994.84
2022-10-21T02:40:23.909Z,100983.41
2022-10-21T02:42:52.718Z,100986.44
2022-10-21T02:45:18.453Z,100983.50
2022-10-21T02:47:44.297Z,100977.16
2022-10-21T02:50:08.839Z,100966.03
2022-10-21T02:52:32.421Z,100952.47
2022-10-21T02:54:57.310Z,100955.16
2022-10-21T02:57:20.900Z,100952.72
2022-10-21T02:59:44.463Z,100953.44
2022-10-21T03:02:08.031Z,100944.78
2022-10-21T03:04:31.556Z,100947.63
2022-10-21T03:06:55.167Z,100946.38
2022-10-21T03:09:18.707Z,100943.56
2022-10-21T03:11:43.695Z,100931.22
2022-10-21T03:14:07.203Z,100933.41
2022-10-21T03:16:30.812Z,100923.91
2022-10-21T03:18:54.351Z,100930.25
2022-10-21T03:21:17.903Z,100928.16
2022-10-21T03:23:41.475Z,100926.09
2022-10-21T03:26:05.143Z,100927.06
2022-10-21T03:28:30.470Z,100942.69
2022-10-21T03:30:55.522Z,100936.47
2022-10-21T03:33:19.050Z,100934.28
2022-10-21T03:35:42.681Z,100937.06
2022-10-21T03:38:06.252Z,100929.78
2022-10-21T03:40:30.425Z,100942.47
2022-10-21T03:42:54.031Z,100925.84
2022-10-21T03:45:19.183Z,100918.50
2022-10-21T03:47:42.695Z,100916.56
2022-10-21T03:50:11.874Z,100923.03
2022-10-21T03:52:37.847Z,100931.28
2022-10-21T03:55:01.455Z,100927.28
2022-10-21T03:57:25.048Z,100927.19
2022-10-21T03:59:48.607Z,100922.41
2022-10-21T04:02:13.644Z,100898.25
2022-10-21T04:04:37.319Z,100903.38
2022-10-21T04:07:00.950Z,100908.88
2022-10-21T04:09:24.450Z,100914.25
2022-10-21T04:11:48.015Z,100905.31
2022-10-21T04:14:14.547Z,100918.06
2022-10-21T04:16:39.110Z,100902.28
2022-10-21T04:19:04.325Z,100893.50
2022-10-21T04:21:28.086Z,100881.03
2022-10-21T04:23:51.624Z,100878.72
2022-10-21T04:26:15.266Z,100874.06
2022-10-21T04:28:39.451Z,100859.56
2022-10-21T04:31:03.403Z,100852.19
2022-10-21T04:33:27.146Z,100858.69
2022-10-21T04:35:52.246Z,100842.44
2022-10-21T04:38:15.887Z,100833.28
2022-10-21T04:40:39.547Z,100844.75
2022-10-21T04:43:03.759Z,100837.53
2022-10-21T04:45:27.409Z,100845.75
2022-10-21T04:47:50.952Z,100837.56
2022-10-21T04:50:14.662Z,100841.31
2022-10-21T04:52:40.831Z,100847.31
2022-10-21T04:55:07.143Z,100846.69
2022-10-21T04:57:30.739Z,100841.06
2022-10-21T04:59:54.327Z,100833.72
2022-10-21T05:02:20.498Z,100844.94
2022-10-21T05:04:46.625Z,100834.84
2022-10-21T05:07:10.458Z,100826.03
2022-10-21T05:09:35.495Z,100821.25
2022-10-21T05:11:59.075Z,100824.22
2022-10-21T05:14:23.056Z,100819.69
2022-10-21T05:16:46.613Z,100813.81
2022-10-21T05:19:10.239Z,100812.81
2022-10-21T05:21:33.806Z,100808.94
2022-10-21T05:23:57.480Z,100800.03
2022-10-21T05:26:24.263Z,100813.72
2022-10-21T05:28:47.848Z,100811.44
2022-10-21T05:31:11.387Z,100804.94
2022-10-21T05:33:35.017Z,100798.34
2022-10-21T05:36:00.991Z,100794.66
2022-10-21T05:38:24.603Z,100799.91
2022-10-21T05:40:48.977Z,100792.41
2022-10-21T05:43:13.932Z,100793.47
2022-10-21T05:45:37.465Z,100784.38
2022-10-21T05:48:01.010Z,100788.06
2022-10-21T05:50:24.645Z,100787.06
2022-10-21T05:52:48.269Z,100783.50
2022-10-21T05:55:11.951Z,100778.78
2022-10-21T05:57:36.233Z,100773.63
2022-10-21T06:00:01.206Z,100779.28
2022-10-21T06:02:24.771Z,100784.75
2022-10-21T06:04:48.267Z,100789.38
2022-10-21T06:07:12.007Z,100784.44
2022-10-21T06:09:35.567Z,100772.22
2022-10-21T06:11:59.203Z,100773.31
2022-10-21T06:14:22.722Z,100777.31
2022-10-21T06:16:47.741Z,100770.47
2022-10-21T06:19:11.283Z,100775.19
2022-10-21T06:21:34.907Z,100774.06
2022-10-21T06:23:58.472Z,100787.06
2022-10-21T06:26:22.566Z,100779.22
2022-10-21T06:28:46.084Z,100776.03
2022-10-21T06:31:14.308Z,100785.69
2022-10-21T06:33:39.304Z,100785.94
2022-10-21T06:36:02.939Z,100781.03
2022-10-21T06:38:27.186Z,100786.78
2022-10-21T06:40:50.761Z,100792.81
2022-10-21T06:43:14.286Z,100799.34
2022-10-21T06:45:38.047Z,100797.81
2022-10-21T06:48:01.958Z,100796.31
2022-10-21T06:50:27.220Z,100799.44
2022-10-21T06:52:50.897Z,100797.91
2022-10-21T06:55:14.477Z,100797.28
2022-10-21T06:57:38.132Z,100795.88
2022-10-21T07:00:01.843Z,100783.84
2022-10-21T07:02:25.504Z,100789.59
2022-10-21T07:04:49.470Z,100786.81
2022-10-21T07:07:14.457Z,100789.84
2022-10-21T07:09:38.082Z,100792.44
2022-10-21T07:12:02.911Z,100789.66
2022-10-21T07:14:26.551Z,100792.69
2022-10-21T07:16:51.512Z,100789.88
2022-10-21T07:19:15.385Z,100795.03
2022-10-21T07:21:39.034Z,100802.78
2022-10-21T07:24:04.045Z,100815.50
2022-10-21T07:26:29.416Z,100815.41
2022-10-21T07:28:53.163Z,100807.97
2022-10-21T07:31:18.572Z,100812.78
2022-10-21T07:33:43.457Z,100816.75
2022-10-21T07:36:10.396Z,100818.75
2022-10-21T07:38:34.263Z,100820.16
2022-10-21T07:40:59.338Z,100808.56
2022-10-21T07:43:22.903Z,100810.78
2022-10-21T07:45:46.560Z,100806.16
2022-10-21T07:48:10.445Z,100814.47
2022-10-21T07:50:34.019Z,100805.31
2022-10-21T07:53:11.039Z,100811.69
2022-10-21T07:55:35.848Z,100807.53
2022-10-21T07:58:00.967Z,100808.63
2022-10-21T08:00:24.538Z,100814.34
2022-10-21T08:02:48.071Z,100805.91
2022-10-21T08:05:11.644Z,100800.84
2022-10-21T08:07:35.831Z,100809.06
2022-10-21T08:09:59.491Z,100813.63
2022-10-21T08:12:23.024Z,100807.63
2022-10-21T08:14:48.155Z,100808.81
2022-10-21T08:17:11.670Z,100812.50
2022-10-21T08:19:35.799Z,100803.09
2022-10-21T08:22:00.904Z,100799.72
2022-10-21T08:24:24.644Z,100791.75
2022-10-21T08:26:48.337Z,100794.34
2022-10-21T08:29:11.920Z,100789.47
2022-10-21T08:31:36.880Z,100790.28
2022-10-21T08:34:00.461Z,100793.16
2022-10-21T08:36:26.015Z,100786.50
2022-10-21T08:38:50.545Z,100790.88
2022-10-21T08:41:36.763Z,100776.09
2022-10-21T08:44:06.867Z,100777.09
2022-10-21T08:46:37.159Z,100768.72
2022-10-21T08:49:05.398Z,100770.88
2022-10-21T08:51:34.591Z,100768.72
2022-10-21T08:54:04.024Z,100747.28
2022-10-21T08:56:28.732Z,100750.56
2022-10-21T08:58:53.766Z,100757.50
2022-10-21T09:01:24.474Z,100759.50
2022-10-21T09:03:57.786Z,100754.25
2022-10-21T09:06:29.578Z,100752.94
2022-10-21T09:09:08.458Z,100749.50
2022-10-21T09:11:48.067Z,100746.50
2022-10-21T09:14:58.631Z,100744.34
2022-10-21T09:17:36.662Z,100736.34
2022-10-21T09:20:13.916Z,100725.22
2022-10-21T09:22:56.473Z,100723.97
2022-10-21T09:25:25.064Z,100719.44
2022-10-21T09:27:57.366Z,100724.19
2022-10-21T09:30:23.226Z,100721.38
2022-10-21T09:32:51.111Z,100720.63
2022-10-21T09:35:25.840Z,100717.63
2022-10-21T09:37:53.421Z,100723.59
2022-10-21T09:40:19.362Z,100713.56
2022-10-21T09:42:47.269Z,100724.94
2022-10-21T09:45:22.353Z,100720.91
2022-10-21T09:47:49.606Z,100712.38
2022-10-21T09:50:18.768Z,100714.38
2022-10-21T09:52:51.430Z,100709.19
2022-10-21T09:55:16.008Z,100709.28
2022-10-21T09:57:47.470Z,100714.19
2022-10-21T10:00:13.975Z,100714.97
2022-10-21T10:02:43.171Z,100708.16
2022-10-21T10:05:36.449Z,100717.19
2022-10-21T10:08:00.044Z,100717.00
2022-10-21T10:10:32.918Z,100720.00
2022-10-21T10:12:58.688Z,100714.09
2022-10-21T10:15:34.561Z,100703.47
2022-10-21T10:17:58.857Z,100706.75
2022-10-21T10:20:23.864Z,100705.03
2022-10-21T10:22:49.425Z,100702.63
2022-10-21T10:25:24.270Z,100702.41
2022-10-21T10:27:54.210Z,100692.72
2022-10-21T10:30:18.611Z,100692.16
2022-10-21T10:32:42.731Z,100680.66
2022-10-21T10:35:23.850Z,100687.75
2022-10-21T10:37:50.546Z,100683.31
2022-10-21T10:40:23.834Z,100683.69
2022-10-21T10:42:47.714Z,100679.94
2022-10-21T10:45:19.688Z,100673.00
2022-10-21T10:47:49.140Z,100672.00
2022-10-21T10:50:45.622Z,100656.38
2022-10-21T10:53:33.704Z,100669.19
2022-10-21T10:56:07.932Z,100661.47
2022-10-21T10:58:36.058Z,100662.41
2022-10-21T11:01:05.157Z,100645.13
2022-10-21T11:03:41.122Z,100647.59
2022-10-21T11:06:15.632Z,100643.56
2022-10-21T11:08:45.268Z,100636.72
2022-10-21T11:11:16.382Z,100642.66
2022-10-21T11:13:42.197Z,100633.88
2022-10-21T11:16:26.015Z,100630.38
2022-10-21T11:18:58.262Z,100633.56
2022-10-21T11:21:43.231Z,100630.84
2022-10-21T11:24:30.268Z,100632.88
2022-10-21T11:27:01.219Z,100635.13
2022-10-21T11:29:41.187Z,100622.59
2022-10-21T11:32:21.606Z,100628.03
2022-10-21T11:35:01.535Z,100623.81
2022-10-21T11:37:44.238Z,100620.97
2022-10-21T11:40:21.174Z,100625.47
2022-10-21T11:42:48.363Z,100622.91
2022-10-21T11:45:38.995Z,100621.56
2022-10-21T11:48:18.304Z,100629.78
2022-10-21T11:50:54.512Z,100636.16
2022-10-21T11:53:36.512Z,100627.78
2022-10-21T11:56:14.761Z,100626.00
2022-10-21T11:58:51.575Z,100629.75
2022-10-21T12:01:28.511Z,100627.91
2022-10-21T12:04:24.464Z,100626.09
2022-10-21T12:07:07.743Z,100626.69
2022-10-21T12:09:40.039Z,100624.97
2022-10-21T12:12:10.235Z,100620.41
2022-10-21T12:14:38.159Z,100613.28
2022-10-21T12:17:06.902Z,100627.69
2022-10-21T12:19:31.350Z,100626.47
2022-10-21T12:21:55.223Z,100633.56
2022-10-21T12:24:36.611Z,100619.13
2022-10-21T12:27:11.079Z,100617.91
2022-10-21T12:29:59.945Z,100615.44
2022-10-21T12:32:31.148Z,100609.97
2022-10-21T12:34:55.569Z,100613.91
2022-10-21T12:37:47.727Z,100619.25
2022-10-21T12:40:17.405Z,100615.06
2022-10-21T12:42:47.958Z,100617.91
2022-10-21T12:45:28.368Z,100619.25
2022-10-21T12:47:54.452Z,100617.06
2022-10-21T12:50:29.730Z,100616.09
2022-10-21T12:53:18.170Z,100617.66
2022-10-21T12:55:43.241Z,100617.28
2022-10-21T12:58:23.773Z,100613.31
2022-10-21T13:00:57.205Z,100617.06
2022-10-21T13:03:22.970Z,100605.53
2022-10-21T13:06:07.122Z,100612.69
2022-10-21T13:08:41.529Z,100607.53
2022-10-21T13:11:24.004Z,100608.41
2022-10-21T13:13:50.188Z,100608.78
2022-10-21T13:16:46.742Z,100593.94
2022-10-21T13:19:35.579Z,100596.19
2022-10-21T13:22:04.560Z,100588.75
2022-10-21T13:24:32.172Z,100594.06
2022-10-21T13:26:58.321Z,100587.72
2022-10-21T13:29:33.486Z,100585.50
2022-10-21T13:32:30.111Z,100588.31
2022-10-21T13:35:03.019Z,100585.34
2022-10-21T13:37:30.278Z,100585.19
2022-10-21T13:39:55.696Z,100584.13
2022-10-21T13:42:24.091Z,100590.34
2022-10-21T13:44:59.135Z,100589.22
2022-10-21T13:47:30.278Z,100589.50
2022-10-21T13:49:56.658Z,100599.66
2022-10-21T13:52:20.503Z,100597.66
2022-10-21T13:54:44.052Z,100591.25
2022-10-21T13:57:08.958Z,100588.41
2022-10-21T13:59:34.656Z,100587.47
2022-10-21T14:01:59.791Z,100584.09
2022-10-21T14:04:27.055Z,100584.59
2022-10-21T14:06:57.793Z,100581.66
2022-10-21T14:09:27.159Z,100591.78
2022-10-21T14:11:54.871Z,100584.00
2022-10-21T14:14:22.993Z,100582.44
2022-10-21T14:16:53.394Z,100582.03
2022-10-21T14:19:23.242Z,100586.53
2022-10-21T14:21:52.394Z,100583.31
2022-10-21T14:24:35.733Z,100583.47
2022-10-21T14:26:59.761Z,100584.81
2022-10-21T14:29:25.584Z,100587.00
2022-10-21T14:31:49.383Z,100582.44
2022-10-21T14:34:24.359Z,100585.84
2022-10-21T14:37:07.835Z,100583.97
2022-10-21T14:39:34.758Z,100582.44
2022-10-21T14:42:05.238Z,100586.47
2022-10-21T14:44:30.930Z,100587.88
2022-10-21T14:46:55.631Z,100584.78
2022-10-21T14:49:24.449Z,100579.38
2022-10-21T14:51:48.124Z,100581.59
2022-10-21T14:54:27.722Z,100579.19
2022-10-21T14:56:51.317Z,100567.28
2022-10-21T14:59:23.997Z,100560.38
2022-10-21T15:01:47.999Z,100568.53
2022-10-21T15:04:44.917Z,100567.13
2022-10-21T15:07:19.570Z,100571.19
2022-10-21T15:10:13.047Z,100564.91
2022-10-21T15:12:41.841Z,100560.38
2022-10-21T15:15:07.099Z,100560.06
2022-10-21T15:17:30.763Z,100562.41
2022-10-21T15:19:55.874Z,100558.34
2022-10-21T15:22:30.122Z,100562.09
2022-10-21T15:24:56.035Z,100553.94
2022-10-21T15:27:27.110Z,100553.09
2022-10-21T15:29:50.775Z,100546.50
2022-10-21T15:32:19.432Z,100549.53
2022-10-21T15:34:43.284Z,100542.28
2022-10-21T15:37:08.427Z,100542.41
2022-10-21T15:39:32.595Z,100544.97
2022-10-21T15:41:57.557Z,100546.31
2022-10-21T15:44:25.918Z,100541.75
2022-10-21T15:46:57.530Z,100544.13
2022-10-21T15:49:24.649Z,100548.53
2022-10-21T15:51:49.529Z,100543.28
2022-10-21T15:54:15.467Z,100543.09
2022-10-21T15:56:39.081Z,100540.22
2022-10-21T15:59:03.182Z,100538.00
2022-10-21T16:01:28.291Z,100538.00
2022-10-21T16:03:51.897Z,100541.56
2022-10-21T16:06:18.710Z,100536.28
2022-10-21T16:08:42.371Z,100544.25
2022-10-21T16:11:09.592Z,100539.50
2022-10-21T16:13:33.160Z,100541.03
2022-10-21T16:15:57.454Z,100543.41
2022-10-21T16:18:21.055Z,100547.97
2022-10-21T16:20:44.794Z,100545.41
2022-10-21T16:23:08.735Z,100541.84
2022-10-21T16:25:32.323Z,100541.84
2022-10-21T16:27:57.295Z,100553.00
2022-10-21T16:30:23.728Z,100552.16
2022-10-21T16:32:47.479Z,100553.88
2022-10-21T16:35:13.934Z,100558.59
2022-10-21T16:37:37.752Z,100559.59
2022-10-21T16:40:02.151Z,100565.66
2022-10-21T16:42:25.855Z,100562.28
2022-10-21T16:44:51.225Z,100570.75
2022-10-21T16:47:19.494Z,100561.09
2022-10-21T16:49:43.065Z,100566.66
2022-10-21T16:52:06.959Z,100571.06
2022-10-21T16:54:30.522Z,100561.63
2022-10-21T16:56:55.614Z,100561.84
2022-10-21T16:59:19.389Z,100563.72
2022-10-21T17:01:44.590Z,100571.00
2022-10-21T17:04:08.207Z,100578.47
2022-10-21T17:06:31.972Z,100568.94
2022-10-21T17:08:57.263Z,100574.00
2022-10-21T17:11:23.224Z,100576.91
2022-10-21T17:13:47.167Z,100570.78
2022-10-21T17:16:11.026Z,100577.84
2022-10-21T17:18:35.973Z,100571.03
2022-10-21T17:20:59.540Z,100573.88
2022-10-21T17:23:24.608Z,100583.28
2022-10-21T17:25:48.190Z,100578.13
2022-10-21T17:28:11.706Z,100588.28
2022-10-21T17:30:35.467Z,100574.69
2022-10-21T17:32:59.049Z,100589.41
2022-10-21T17:35:24.188Z,100585.06
2022-10-21T17:37:48.289Z,100589.22
2022-10-21T17:40:16.478Z,100594.22
2022-10-21T17:42:40.287Z,100596.41
2022-10-21T17:45:04.191Z,100598.88
2022-10-21T17:47:27.820Z,100602.13
2022-10-21T17:49:51.351Z,100593.03
2022-10-21T17:52:16.240Z,100596.94
2022-10-21T17:54:39.842Z,100607.69
2022-10-21T17:57:03.341Z,100597.59
2022-10-21T17:59:26.947Z,100595.22
2022-10-21T18:01:50.539Z,100595.41
2022-10-21T18:04:14.399Z,100590.34
2022-10-21T18:06:38.029Z,100591.91
2022-10-21T18:09:05.382Z,100586.28
2022-10-21T18:11:29.003Z,100593.09
2022-10-21T18:13:55.172Z,100584.00
2022-10-21T18:16:22.913Z,100579.41
2022-10-21T18:18:47.261Z,100582.94
2022-10-21T18:21:13.403Z,100576.91
2022-10-21T18:23:39.147Z,100580.69
2022-10-21T18:26:05.886Z,100579.66
2022-10-21T18:28:29.583Z,100580.22
2022-10-21T18:30:53.170Z,100582.50
2022-10-21T18:33:16.724Z,100579.81
2022-10-21T18:35:40.366Z,100580.50
2022-10-21T18:38:03.947Z,100590.25
2022-10-21T18:40:28.227Z,100595.06
2022-10-21T18:42:53.262Z,100603.44
2022-10-21T18:45:16.965Z,100602.34
2022-10-21T18:47:40.954Z,100602.56
2022-10-21T18:50:05.186Z,100597.03
2022-10-21T18:52:28.770Z,100589.22
2022-10-21T18:54:52.262Z,100587.53
2022-10-21T18:57:15.952Z,100593.00
2022-10-21T18:59:41.098Z,100583.53
2022-10-21T19:02:04.688Z,100587.53
2022-10-21T19:04:28.268Z,100586.09
2022-10-21T19:06:51.879Z,100583.84
2022-10-21T19:09:20.256Z,100587.50
2022-10-21T19:11:44.941Z,100588.22
2022-10-21T19:14:11.420Z,100583.22
2022-10-21T19:16:39.662Z,100584.13
2022-10-21T19:19:03.363Z,100585.13
2022-10-21T19:21:27.552Z,100588.53
2022-10-21T19:23:52.186Z,100576.88
2022-10-21T19:26:18.794Z,100579.22
2022-10-21T19:28:44.781Z,100598.00
2022-10-21T19:31:11.267Z,100604.66
2022-10-21T19:33:36.181Z,100605.53
2022-10-21T19:36:01.569Z,100610.78
2022-10-21T19:38:39.654Z,100611.63
2022-10-21T19:41:13.677Z,100616.03
2022-10-21T19:43:37.234Z,100608.41
2022-10-21T19:46:03.771Z,100614.19
2022-10-21T19:48:27.334Z,100625.34
2022-10-21T19:50:53.598Z,100625.88
2022-10-21T19:53:17.632Z,100618.72
2022-10-21T19:55:41.315Z,100631.28
2022-10-21T19:58:04.880Z,100630.75
2022-10-21T20:00:28.469Z,100633.63
2022-10-21T20:02:51.994Z,100625.53
2022-10-21T20:05:15.571Z,100621.66
2022-10-21T20:07:41.143Z,100623.50
2022-10-21T20:10:07.085Z,100615.22
2022-10-21T20:12:30.634Z,100615.56
2022-10-21T20:14:54.187Z,100627.72
2022-10-21T20:17:18.383Z,100623.34
2022-10-21T20:19:42.054Z,100624.38
2022-10-21T20:22:05.626Z,100618.28
2022-10-21T20:24:30.618Z,100608.25
2022-10-21T20:26:56.177Z,100608.44
2022-10-21T20:29:23.103Z,100607.97
2022-10-21T20:31:46.836Z,100619.13
2022-10-21T20:34:14.134Z,100616.25
2022-10-21T20:36:37.731Z,100629.59
2022-10-21T20:39:03.130Z,100618.16
2022-10-21T20:41:34.159Z,100619.41
2022-10-21T20:43:58.086Z,100618.91
2022-10-21T20:46:24.183Z,100615.16
2022-10-21T20:48:49.657Z,100617.69
2022-10-21T20:51:15.971Z,100621.41
2022-10-21T20:53:40.347Z,100624.00
2022-10-21T20:56:04.971Z,100620.97
2022-10-21T20:58:30.176Z,100627.72
2022-10-21T21:00:53.743Z,100628.59
2022-10-21T21:03:17.294Z,100622.84
2022-10-21T21:05:40.899Z,100628.44
2022-10-21T21:08:04.638Z,100628.47
2022-10-21T21:10:28.226Z,100625.22
2022-10-21T21:12:51.831Z,100626.06
2022-10-21T21:15:16.842Z,100626.91
2022-10-21T21:17:40.483Z,100633.47
2022-10-21T21:20:03.999Z,100634.31
2022-10-21T21:22:27.663Z,100628.84
2022-10-21T21:24:51.198Z,100646.28
2022-10-21T21:27:14.802Z,100635.34
2022-10-21T21:29:38.304Z,100635.88
2022-10-21T21:32:03.287Z,100628.94
2022-10-21T21:34:26.882Z,100634.28
2022-10-21T21:36:50.466Z,100634.78
2022-10-21T21:41:38.914Z,100638.22
2022-10-21T21:44:02.434Z,100628.56
2022-10-21T21:46:27.316Z,100643.44
2022-10-21T21:48:55.457Z,100645.22
2022-10-21T21:51:23.490Z,100639.16
2022-10-21T21:53:47.106Z,100637.06
2022-10-21T21:56:10.732Z,100636.16
2022-10-21T21:58:34.856Z,100636.19
2022-10-21T22:00:58.555Z,100630.34
2022-10-21T22:03:22.080Z,100628.34
2022-10-21T22:05:47.011Z,100622.47
2022-10-21T22:08:11.611Z,100616.34
2022-10-21T22:10:35.722Z,100621.19
2022-10-21T22:12:59.227Z,100619.75
2022-10-21T22:15:43.342Z,100614.13
2022-10-21T22:18:06.986Z,100616.84
2022-10-21T22:20:30.522Z,100618.53
2022-10-21T22:22:55.489Z,100622.91
2022-10-21T22:25:19.545Z,100626.31
2022-10-21T22:27:43.370Z,100633.88
2022-10-21T22:30:09.263Z,100630.91
2022-10-21T22:32:32.922Z,100635.75
2022-10-21T22:34:56.451Z,100638.88
2022-10-21T22:37:20.105Z,100644.56
2022-10-21T22:39:45.030Z,100643.47
2022-10-21T22:42:08.636Z,100638.22
2022-10-21T22:44:32.207Z,100643.44
2022-10-21T22:46:55.772Z,100632.09
2022-10-21T22:49:19.331Z,100640.66
2022-10-21T22:51:43.134Z,100645.50
2022-10-21T22:54:15.040Z,100652.72
2022-10-21T22:56:49.188Z,100654.38
2022-10-21T22:59:12.721Z,100651.78
2022-10-21T23:01:36.339Z,100642.56
2022-10-21T23:04:02.754Z,100640.03
2022-10-21T23:06:26.455Z,100638.13
2022-10-21T23:08:50.093Z,100641.69
2022-10-21T23:11:13.714Z,100650.13
2022-10-21T23:13:47.367Z,100650.88
2022-10-21T23:16:20.179Z,100663.00
2022-10-21T23:18:43.791Z,100658.59
2022-10-21T23:21:07.872Z,100656.75
2022-10-21T23:23:31.935Z,100654.09
2022-10-21T23:25:55.527Z,100647.91
2022-10-21T23:30:49.068Z,100634.78
2022-10-21T23:33:12.571Z,100625.47
2022-10-21T23:35:36.361Z,100621.13
2022-10-21T23:38:00.418Z,100634.47
2022-10-21T23:40:24.087Z,100638.53
2022-10-21T23:42:47.630Z,100632.63
2022-10-21T23:45:12.680Z,100628.09
2022-10-21T23:47:38.190Z,100618.44
2022-10-21T23:50:02.181Z,100613.31
2022-10-21T23:52:25.840Z,100607.41
2022-10-21T23:54:49.482Z,100608.75
2022-10-21T23:57:13.050Z,100605.03
2022-10-21T23:59:36.664Z,100598.44
